This is the latest recevied weather packets stored in our database for station/object W5MAI. If no packets are shown the sender has not sent any weather packets the latest 10 day(s).
| Time | Temp. | Humidity | Pressure | Rain* | Wind** | Luminosity | Snow |
|---|---|---|---|---|---|---|---|
| 1777743840 | 20.56° C | 58% | 1024.1 hPa | 0 mm | - | 939 W/m² | - |
| 1777743206 | 20.56° C | 56% | 1024.3 hPa | 0 mm | - | 925 W/m² | - |
| 1777742033 | 20° C | 58% | 1024.5 hPa | 0 mm | - | 893 W/m² | - |
| 1777741456 | 20° C | 60% | 1024.6 hPa | 0 mm | - | 881 W/m² | - |
| 1777739033 | 18.89° C | 62% | 1024.8 hPa | 0 mm | - | 800 W/m² | - |
| 1777738461 | 18.89° C | 60% | 1024.9 hPa | 0 mm | - | 782 W/m² | - |
| 1777737207 | 18.89° C | 60% | 1024.7 hPa | 0 mm | - | 726 W/m² | - |
| 1777736643 | 18.33° C | 62% | 1024.7 hPa | 0 mm | - | 698 W/m² | - |
| 1777736024 | 18.33° C | 66% | 1024.5 hPa | 0 mm | - | 668 W/m² | - |
| 1777735461 | 17.78° C | 66% | 1024.5 hPa | 0 mm | - | 640 W/m² | - |
| 1777734813 | 17.22° C | 67% | 1024.4 hPa | 0 mm | - | 603 W/m² | - |
| 1777733630 | 16.67° C | 69% | 1024.3 hPa | 0 mm | - | 439 W/m² | - |
| 1777733038 | 16.11° C | 68% | 1024.1 hPa | 0 mm | - | 397 W/m² | - |
| 1777732404 | 16.11° C | 72% | 1023.9 hPa | 0 mm | - | 392 W/m² | - |
| 1777730022 | 13.89° C | 83% | 1023.6 hPa | 0 mm | - | 230 W/m² | - |
| 1777729461 | 13.33° C | 87% | 1023.5 hPa | 0 mm | - | 223 W/m² | - |
| 1777728833 | 12.78° C | 89% | 1023.4 hPa | 0 mm | - | 199 W/m² | - |
| 1777728252 | 11.67° C | 92% | 1023.4 hPa | 0 mm | - | 172 W/m² | - |
| 1777727615 | 11.11° C | 95% | 1023.4 hPa | 0 mm | - | 142 W/m² | - |
| 1777727036 | 10.56° C | 96% | 1023.2 hPa | 0 mm | - | 102 W/m² | - |
| 1777726405 | 9.44° C | 97% | 1023 hPa | 0 mm | - | 79 W/m² | - |
| 1777725819 | 8.33° C | 96% | 1023 hPa | 0 mm | - | 69 W/m² | - |
| 1777725253 | 7.22° C | 95% | 1022.8 hPa | 0 mm | - | 47 W/m² | - |
| 1777724631 | 6.67° C | 95% | 1022.7 hPa | 0 mm | - | 26 W/m² | - |
| 1777724051 | 6.67° C | 94% | 1022.5 hPa | 0 mm | - | 14 W/m² | - |
* Rain latest hour (hover to see other rain measurements)
** Current wind speed in m/s (hover to see current wind gust speed)